Time;durP1;ratioP1;P1;durP2;ratioP2;P2;SDS_P1;SDS_P2;PMS_P1;PMS_P2;Temp;Humidity;BMP_temperature;BMP_pressure;BME280_temperature;BME280_humidity;BME280_pressure;Samples;Min_cycle;Max_cycle;Signal;HPM_P1;HPM_P2
2023/03/10 00:00:51;;;;;;;0.40;0.23;;;;;;;;;;6094497;23;20177;-89
2023/03/10 00:03:35;;;;;;;0.40;0.40;;;;;;;;;;6094642;23;20175;-89
2023/03/10 00:06:09;;;;;;;0.43;0.27;;;;;;;;;;6101760;23;20269;-88
2023/03/10 00:08:50;;;;;;;0.10;0.10;;;;;;;;;;6096061;23;20189;-89
2023/03/10 00:11:37;;;;;;;0.30;0.30;;;;;;;;;;6096747;23;20190;-87
2023/03/10 00:14:08;;;;;;;0.10;0.10;;;;;;;;;;6095238;23;20221;-87
2023/03/10 00:16:44;;;;;;;0.10;0.10;;;;;;;;;;6094809;23;20519;-89
2023/03/10 00:19:25;;;;;;;0.50;0.50;;;;;;;;;;6093928;23;20170;-88
2023/03/10 00:22:08;;;;;;;;;;;;;;;;;;;;;
2023/03/10 00:24:39;;;;;;;0.10;0.10;;;;;;;;;;6093866;23;20331;-87
2023/03/10 00:27:23;;;;;;;0.00;0.00;;;;;;;;;;6093810;23;20163;-89
2023/03/10 00:32:43;;;;;;;0.37;0.37;;;;;;;;;;6103225;23;20229;-88
2023/03/10 00:35:41;;;;;;;;;;;;;;;;;;;;;
2023/03/10 00:38:21;;;;;;;0.10;0.10;;;;;;;;;;6094432;23;20553;-88
2023/03/10 00:44:12;;;;;;;;;;;;;;;;;;;;;
2023/03/10 00:46:56;;;;;;;;;;;;;;;;;;;;;
2023/03/10 00:49:34;;;;;;;0.10;0.10;;;;;;;;;;6093097;23;20177;-89
2023/03/10 00:52:09;;;;;;;0.30;0.30;;;;;;;;;;6095872;23;20642;-88
2023/03/10 00:54:42;;;;;;;0.10;0.10;;;;;;;;;;6093333;23;20177;-86
2023/03/10 00:57:16;;;;;;;0.20;0.20;;;;;;;;;;6091135;23;20236;-88
2023/03/10 01:05:46;;;;;;;0.30;0.30;;;;;;;;;;6092516;23;20627;-90
2023/03/10 01:08:20;;;;;;;0.10;0.10;;;;;;;;;;6092889;23;20174;-88
2023/03/10 01:10:59;;;;;;;0.00;0.00;;;;;;;;;;6089578;23;20529;-89
2023/03/10 01:19:32;;;;;;;1.50;0.40;;;;;;;;;;6122965;23;20220;-89
2023/03/10 01:22:07;;;;;;;0.10;0.10;;;;;;;;;;6125467;22;20169;-90
2023/03/10 01:24:56;;;;;;;0.20;0.20;;;;;;;;;;6124445;23;20556;-88
2023/03/10 01:27:27;;;;;;;0.00;0.00;;;;;;;;;;6124086;22;20170;-87
2023/03/10 01:30:08;;;;;;;;;;;;;;;;;;;;;
2023/03/10 01:32:49;;;;;;;0.13;0.13;;;;;;;;;;6122646;22;20204;-89
2023/03/10 01:35:24;;;;;;;0.00;0.00;;;;;;;;;;6122502;23;20249;-87
2023/03/10 01:37:53;;;;;;;0.20;0.20;;;;;;;;;;6123838;23;20230;-86
2023/03/10 01:40:25;;;;;;;0.20;0.20;;;;;;;;;;6123815;23;20170;-88
2023/03/10 01:46:05;;;;;;;0.77;0.57;;;;;;;;;;6124384;22;20231;-88
2023/03/10 01:48:37;;;;;;;0.20;0.20;;;;;;;;;;6123826;23;20170;-87
2023/03/10 01:51:13;;;;;;;0.00;0.00;;;;;;;;;;6128015;22;20182;-89
2023/03/10 01:53:45;;;;;;;0.00;0.00;;;;;;;;;;6125970;22;20197;-90
2023/03/10 01:56:30;;;;;;;0.40;0.40;;;;;;;;;;6132244;23;20200;-87
2023/03/10 01:59:02;;;;;;;0.17;0.17;;;;;;;;;;6133643;23;20520;-87
2023/03/10 02:01:38;;;;;;;0.17;0.17;;;;;;;;;;6131982;23;20182;-89
2023/03/10 02:04:17;;;;;;;0.23;0.17;;;;;;;;;;6133305;23;20169;-88
2023/03/10 02:06:48;;;;;;;0.33;0.33;;;;;;;;;;6132716;22;20428;-88
2023/03/10 02:09:25;;;;;;;0.30;0.30;;;;;;;;;;6131418;23;20197;-88
2023/03/10 02:12:08;;;;;;;0.10;0.10;;;;;;;;;;6121346;23;20169;-87
2023/03/10 02:14:42;;;;;;;0.00;0.00;;;;;;;;;;6123409;22;20181;-88
2023/03/10 02:17:18;;;;;;;1.07;1.07;;;;;;;;;;6128256;22;20772;-88
2023/03/10 02:20:03;;;;;;;0.17;0.17;;;;;;;;;;6280029;22;20166;-90
2023/03/10 02:22:35;;;;;;;0.00;0.00;;;;;;;;;;6275954;22;20184;-88
2023/03/10 02:25:08;;;;;;;0.20;0.20;;;;;;;;;;6274509;22;20506;-87
2023/03/10 02:27:50;;;;;;;0.10;0.10;;;;;;;;;;6276539;22;20650;-88
2023/03/10 02:30:26;;;;;;;0.10;0.03;;;;;;;;;;6276553;22;20643;-89
2023/03/10 02:33:04;;;;;;;0.00;0.00;;;;;;;;;;6279615;22;20524;-88
2023/03/10 02:35:42;;;;;;;0.30;0.30;;;;;;;;;;6276475;22;20165;-89
2023/03/10 02:38:16;;;;;;;0.40;0.23;;;;;;;;;;6278445;22;20649;-89
2023/03/10 02:40:46;;;;;;;0.33;0.33;;;;;;;;;;6276499;22;20166;-88
2023/03/10 02:43:22;;;;;;;0.00;0.00;;;;;;;;;;6276799;22;20162;-89
2023/03/10 02:45:52;;;;;;;0.00;0.00;;;;;;;;;;6276647;22;20165;-90
2023/03/10 02:48:26;;;;;;;0.30;0.30;;;;;;;;;;6274724;22;20680;-89
2023/03/10 02:51:02;;;;;;;0.13;0.13;;;;;;;;;;6276106;22;20469;-89
2023/03/10 02:53:37;;;;;;;0.20;0.20;;;;;;;;;;6277414;22;20239;-89
2023/03/10 02:56:11;;;;;;;0.10;0.10;;;;;;;;;;6276039;22;20169;-89
2023/03/10 02:58:43;;;;;;;0.63;0.63;;;;;;;;;;6276569;22;20177;-89
2023/03/10 03:01:12;;;;;;;0.60;0.60;;;;;;;;;;6275347;22;20287;-89
2023/03/10 03:03:52;;;;;;;0.40;0.20;;;;;;;;;;6278592;22;20202;-89
2023/03/10 03:06:23;;;;;;;0.00;0.00;;;;;;;;;;6277445;22;20180;-90
2023/03/10 03:08:58;;;;;;;0.07;0.07;;;;;;;;;;6277481;22;20189;-89
2023/03/10 03:11:32;;;;;;;1.03;0.30;;;;;;;;;;6277936;22;20662;-88
2023/03/10 03:14:08;;;;;;;0.00;0.00;;;;;;;;;;6276568;22;20724;-88
2023/03/10 03:16:41;;;;;;;0.10;0.10;;;;;;;;;;6275621;22;20172;-89
2023/03/10 03:19:11;;;;;;;0.10;0.10;;;;;;;;;;6275956;22;20645;-89
2023/03/10 03:21:48;;;;;;;0.20;0.20;;;;;;;;;;6279123;22;20248;-89
2023/03/10 03:24:19;;;;;;;0.97;0.13;;;;;;;;;;6276688;22;20237;-89
2023/03/10 03:26:52;;;;;;;0.10;0.10;;;;;;;;;;6277859;22;20174;-88
2023/03/10 03:29:26;;;;;;;0.30;0.30;;;;;;;;;;6278843;22;20249;-88
2023/03/10 03:32:00;;;;;;;0.07;0.07;;;;;;;;;;6276429;22;20229;-89
2023/03/10 03:34:35;;;;;;;0.43;0.43;;;;;;;;;;6277483;22;20197;-88
2023/03/10 03:37:07;;;;;;;0.37;0.10;;;;;;;;;;6278229;22;20169;-86
2023/03/10 03:39:40;;;;;;;0.17;0.17;;;;;;;;;;6279065;22;20592;-88
2023/03/10 03:42:10;;;;;;;0.10;0.10;;;;;;;;;;6279245;22;20188;-87
2023/03/10 03:44:58;;;;;;;0.60;0.40;;;;;;;;;;6276673;22;20178;-86
2023/03/10 03:47:30;;;;;;;0.20;0.20;;;;;;;;;;6273822;22;20178;-87
2023/03/10 03:49:59;;;;;;;0.07;0.07;;;;;;;;;;6278435;22;20237;-89
2023/03/10 03:52:31;;;;;;;0.10;0.10;;;;;;;;;;6281756;22;20163;-88
2023/03/10 03:55:03;;;;;;;0.10;0.10;;;;;;;;;;6276010;22;20201;-88
2023/03/10 03:57:36;;;;;;;0.40;0.27;;;;;;;;;;6274701;22;20646;-89
2023/03/10 04:00:08;;;;;;;0.20;0.20;;;;;;;;;;6274396;22;20166;-88
2023/03/10 04:02:40;;;;;;;0.20;0.20;;;;;;;;;;6273829;22;20166;-89
2023/03/10 04:05:20;;;;;;;0.03;0.03;;;;;;;;;;6273671;22;20252;-89
2023/03/10 04:07:52;;;;;;;0.00;0.00;;;;;;;;;;6273138;22;20241;-88
2023/03/10 04:10:22;;;;;;;1.53;0.33;;;;;;;;;;6274439;22;20534;-89
2023/03/10 04:12:50;;;;;;;1.73;0.23;;;;;;;;;;6275160;22;20170;-88
2023/03/10 04:15:20;;;;;;;0.00;0.00;;;;;;;;;;6275997;22;20248;-90
2023/03/10 04:18:00;;;;;;;0.40;0.40;;;;;;;;;;6275335;22;20198;-88
2023/03/10 04:20:29;;;;;;;0.00;0.00;;;;;;;;;;6276409;22;20170;-88
2023/03/10 04:23:12;;;;;;;0.20;0.20;;;;;;;;;;6275912;22;20285;-88
2023/03/10 04:25:43;;;;;;;0.10;0.10;;;;;;;;;;6288403;22;20166;-86
2023/03/10 04:28:16;;;;;;;0.20;0.20;;;;;;;;;;6287599;22;20166;-88
2023/03/10 04:30:57;;;;;;;0.53;0.30;;;;;;;;;;6275751;22;20612;-88
2023/03/10 04:33:36;;;;;;;0.10;0.10;;;;;;;;;;6277652;22;20281;-90
2023/03/10 04:36:09;;;;;;;0.10;0.10;;;;;;;;;;6276288;22;20179;-89
2023/03/10 04:38:47;;;;;;;;;;;;;;;;;;;;;
2023/03/10 04:41:21;;;;;;;0.63;0.63;;;;;;;;;;6275786;22;20244;-87
2023/03/10 04:43:49;;;;;;;0.20;0.20;;;;;;;;;;6276557;22;20166;-89
2023/03/10 04:46:31;;;;;;;0.40;0.40;;;;;;;;;;6276295;22;20166;-89
2023/03/10 04:49:16;;;;;;;0.20;0.20;;;;;;;;;;6276114;22;20166;-89
2023/03/10 04:52:02;;;;;;;0.13;0.13;;;;;;;;;;6275835;22;20219;-90
2023/03/10 04:54:30;;;;;;;0.10;0.10;;;;;;;;;;6277767;22;20194;-89
2023/03/10 04:57:08;;;;;;;0.13;0.13;;;;;;;;;;6275353;22;20753;-89
2023/03/10 04:59:42;;;;;;;0.17;0.17;;;;;;;;;;6275556;22;20231;-89
2023/03/10 05:02:19;;;;;;;0.20;0.20;;;;;;;;;;6275714;22;20485;-88
2023/03/10 05:04:50;;;;;;;0.60;0.60;;;;;;;;;;6276520;22;20223;-88
2023/03/10 05:07:21;;;;;;;0.70;0.23;;;;;;;;;;6275547;22;20189;-88
2023/03/10 05:09:55;;;;;;;0.30;0.30;;;;;;;;;;6275645;22;20186;-89
2023/03/10 05:12:41;;;;;;;0.27;0.27;;;;;;;;;;6275727;22;20173;-89
2023/03/10 05:15:10;;;;;;;10.03;0.33;;;;;;;;;;6274361;22;20198;-88
2023/03/10 05:17:38;;;;;;;0.07;0.07;;;;;;;;;;6274349;22;20209;-88
2023/03/10 05:20:21;;;;;;;0.80;0.80;;;;;;;;;;6275131;22;20220;-89
2023/03/10 05:23:00;;;;;;;0.40;0.40;;;;;;;;;;6275358;22;20166;-90
2023/03/10 05:25:32;;;;;;;0.60;0.60;;;;;;;;;;6274810;22;20189;-88
2023/03/10 05:28:10;;;;;;;0.10;0.10;;;;;;;;;;6283229;22;20182;-89
2023/03/10 05:30:41;;;;;;;0.30;0.30;;;;;;;;;;6292271;22;20166;-88
2023/03/10 05:33:26;;;;;;;1.40;0.83;;;;;;;;;;6286981;22;20210;-88
2023/03/10 05:36:07;;;;;;;0.60;0.60;;;;;;;;;;6293440;22;20162;-88
2023/03/10 05:41:29;;;;;;;0.30;0.30;;;;;;;;;;6275516;22;20224;-89
2023/03/10 05:44:09;;;;;;;0.53;0.53;;;;;;;;;;6275907;22;20223;-89
2023/03/10 05:46:50;;;;;;;0.40;0.40;;;;;;;;;;6275490;22;20162;-89
2023/03/10 05:49:30;;;;;;;0.97;0.43;;;;;;;;;;6277802;22;20164;-89
2023/03/10 05:52:15;;;;;;;0.50;0.50;;;;;;;;;;6278199;22;20625;-89
2023/03/10 05:54:59;;;;;;;0.30;0.30;;;;;;;;;;6278278;22;20200;-89
2023/03/10 05:57:40;;;;;;;1.07;0.93;;;;;;;;;;6278152;22;20170;-88
2023/03/10 06:00:20;;;;;;;;;;;;;;;;;;;;;
2023/03/10 06:02:50;;;;;;;0.83;0.40;;;;;;;;;;6276517;22;20237;-89
2023/03/10 06:08:29;;;;;;;0.43;0.43;;;;;;;;;;6275888;22;20528;-89
2023/03/10 06:11:25;;;;;;;1.43;0.80;;;;;;;;;;6276114;22;20193;-91
2023/03/10 06:16:43;;;;;;;1.20;0.67;;;;;;;;;;6270331;22;20170;-88
2023/03/10 06:19:27;;;;;;;;;;;;;;;;;;;;;
2023/03/10 06:22:02;;;;;;;0.33;0.33;;;;;;;;;;6282986;22;20162;-89
2023/03/10 06:24:44;;;;;;;1.13;0.37;;;;;;;;;;6284216;22;20217;-88
2023/03/10 06:27:27;;;;;;;0.93;0.90;;;;;;;;;;6287347;22;20195;-89
2023/03/10 06:30:02;;;;;;;0.40;0.40;;;;;;;;;;6281306;22;20165;-88
2023/03/10 06:32:36;;;;;;;0.73;0.73;;;;;;;;;;6282208;22;20202;-88
2023/03/10 06:35:21;;;;;;;0.60;0.60;;;;;;;;;;6281646;22;20693;-90
2023/03/10 06:44:03;;;;;;;0.43;0.43;;;;;;;;;;6265057;22;20177;-88
2023/03/10 06:46:52;;;;;;;0.40;0.20;;;;;;;;;;6259595;22;20245;-88
2023/03/10 06:49:24;;;;;;;0.50;0.50;;;;;;;;;;6283167;22;20166;-89
2023/03/10 06:52:12;;;;;;;0.70;0.70;;;;;;;;;;6278012;22;20172;-89
2023/03/10 06:54:44;;;;;;;1.03;1.03;;;;;;;;;;6276604;22;20206;-88
2023/03/10 06:57:22;;;;;;;1.50;1.13;;;;;;;;;;6273825;22;20414;-90
2023/03/10 07:00:04;;;;;;;0.20;0.20;;;;;;;;;;6274005;22;20637;-88
2023/03/10 07:02:48;;;;;;;0.33;0.33;;;;;;;;;;6278068;22;20527;-89
2023/03/10 07:05:31;;;;;;;0.40;0.40;;;;;;;;;;6277120;22;20180;-89
2023/03/10 07:08:25;;;;;;;0.00;0.00;;;;;;;;;;6276704;22;20248;-88
2023/03/10 07:10:59;;;;;;;0.67;0.67;;;;;;;;;;6274784;22;20202;-88
2023/03/10 07:16:28;;;;;;;0.33;0.33;;;;;;;;;;6277165;22;20176;-87
2023/03/10 07:19:02;;;;;;;0.37;0.37;;;;;;;;;;6278906;22;20210;-87
2023/03/10 07:21:39;;;;;;;1.33;1.00;;;;;;;;;;6273898;22;20174;-88
2023/03/10 07:24:28;;;;;;;0.43;0.43;;;;;;;;;;6273608;22;20166;-87
2023/03/10 07:26:56;;;;;;;0.73;0.73;;;;;;;;;;6263807;22;20251;-87
2023/03/10 07:29:55;;;;;;;0.30;0.30;;;;;;;;;;6276777;22;20240;-89
2023/03/10 07:32:28;;;;;;;1.30;0.77;;;;;;;;;;6273079;22;20173;-89
2023/03/10 07:34:58;;;;;;;1.50;0.97;;;;;;;;;;6274278;22;20197;-88
2023/03/10 07:37:40;;;;;;;0.40;0.40;;;;;;;;;;6287215;22;20188;-88
2023/03/10 07:58:59;;;;;;;0.10;0.10;;;;;;;;;;6108255;23;20174;-90
2023/03/10 08:01:34;;;;;;;1.00;1.00;;;;;;;;;;6100329;23;20216;-90
2023/03/10 08:07:30;;;;;;;2.93;1.20;;;;;;;;;;6252441;22;20210;-88
2023/03/10 08:12:59;;;;;;;0.60;0.60;;;;;;;;;;6289027;22;20174;-90
2023/03/10 08:18:44;;;;;;;0.50;0.50;;;;;;;;;;6283635;22;20229;-89
2023/03/10 08:24:17;;;;;;;0.80;0.80;;;;;;;;;;6104288;22;20207;-88
2023/03/10 08:27:20;;;;;;;1.90;1.30;;;;;;;;;;6103790;23;20190;-89
2023/03/10 08:32:59;;;;;;;0.47;0.47;;;;;;;;;;6104763;23;20240;-90
2023/03/10 08:35:34;;;;;;;0.87;0.30;;;;;;;;;;6102208;23;20265;-89
2023/03/10 08:38:18;;;;;;;0.00;0.00;;;;;;;;;;6104423;23;20166;-89
2023/03/10 08:46:56;;;;;;;0.20;0.20;;;;;;;;;;6084359;23;20199;-88
2023/03/10 08:53:11;;;;;;;0.10;0.10;;;;;;;;;;6075427;23;20637;-88
2023/03/10 08:55:47;;;;;;;0.47;0.47;;;;;;;;;;6098881;23;20203;-89
2023/03/10 08:58:22;;;;;;;0.10;0.10;;;;;;;;;;6110919;23;20175;-87
2023/03/10 09:03:51;;;;;;;1.45;0.20;;;;;;;;;;6104076;23;20215;-91
2023/03/10 09:06:39;;;;;;;0.00;0.00;;;;;;;;;;6139276;23;20182;-89
2023/03/10 09:12:09;;;;;;;0.50;0.50;;;;;;;;;;6110788;23;20215;-88
2023/03/10 09:14:55;;;;;;;0.30;0.30;;;;;;;;;;6129319;23;20207;-90
2023/03/10 09:17:26;;;;;;;0.03;0.03;;;;;;;;;;6129351;23;20201;-91
2023/03/10 09:20:19;;;;;;;;;;;;;;;;;;;;;
2023/03/10 09:26:12;;;;;;;0.38;0.25;;;;;;;;;;6190370;23;20201;-88
2023/03/10 09:28:53;;;;;;;0.88;0.88;;;;;;;;;;6190821;23;20202;-88
2023/03/10 09:31:48;;;;;;;0.50;0.50;;;;;;;;;;6188615;23;20240;-89
2023/03/10 09:40:53;;;;;;;0.60;0.20;;;;;;;;;;6100419;23;20217;-90
2023/03/10 09:46:55;;;;;;;;;;;;;;;;;;;;;
2023/03/10 09:49:53;;;;;;;0.40;0.40;;;;;;;;;;6095700;23;20205;-90
2023/03/10 09:52:51;;;;;;;0.65;0.65;;;;;;;;;;6095354;23;20196;-89
2023/03/10 09:55:44;;;;;;;0.52;0.52;;;;;;;;;;6096329;23;20206;-90
2023/03/10 09:58:27;;;;;;;0.10;0.10;;;;;;;;;;6114538;23;20206;-90
2023/03/10 10:00:57;;;;;;;0.20;0.20;;;;;;;;;;6097656;23;20199;-91
2023/03/10 10:03:46;;;;;;;0.70;0.70;;;;;;;;;;6095835;23;20196;-91
2023/03/10 10:09:42;;;;;;;;;;;;;;;;;;;;;
2023/03/10 10:12:17;;;;;;;2.40;1.30;;;;;;;;;;6091098;23;20197;-91
2023/03/10 10:33:03;;;;;;;0.30;0.30;;;;;;;;;;6126264;23;20561;-89
2023/03/10 10:35:51;;;;;;;1.07;1.07;;;;;;;;;;6127064;23;20693;-86
2023/03/10 10:38:31;;;;;;;0.20;0.20;;;;;;;;;;6124914;23;20217;-89
2023/03/10 10:41:06;;;;;;;1.70;0.20;;;;;;;;;;6125611;23;20194;-88
2023/03/10 10:46:40;;;;;;;0.17;0.17;;;;;;;;;;6137186;23;20232;-89
2023/03/10 10:49:32;;;;;;;0.80;0.80;;;;;;;;;;6134673;23;20229;-89
2023/03/10 10:52:25;;;;;;;0.93;0.93;;;;;;;;;;6133839;23;20206;-90
2023/03/10 10:55:33;;;;;;;;;;;;;;;;;;;;;
2023/03/10 12:28:49;;;;;;;;;;;;;;;;;;;;;
2023/03/10 13:27:18;;;;;;;0.10;0.10;;;;;;;;;;4923971;28;20319;-90
2023/03/10 15:06:51;;;;;;;0.10;0.10;;;;;;;;;;5017471;23;20233;-88
2023/03/10 15:15:33;;;;;;;0.00;0.00;;;;;;;;;;4974084;28;20313;-88
2023/03/10 15:24:06;;;;;;;0.27;0.27;;;;;;;;;;5041053;28;20674;-89
2023/03/10 15:34:53;;;;;;;0.50;0.50;;;;;;;;;;5023682;28;20233;-88
2023/03/10 15:40:10;;;;;;;0.50;0.50;;;;;;;;;;5017929;28;20402;-90
2023/03/10 15:42:41;;;;;;;0.57;0.30;;;;;;;;;;5021752;28;20217;-89
2023/03/10 15:45:20;;;;;;;1.67;0.93;;;;;;;;;;5017888;28;20284;-89
2023/03/10 15:47:53;;;;;;;0.57;0.30;;;;;;;;;;5018133;28;20235;-88
2023/03/10 15:50:27;;;;;;;1.30;0.50;;;;;;;;;;5016199;28;20243;-89
2023/03/10 15:53:19;;;;;;;0.20;0.20;;;;;;;;;;5008339;28;20238;-89
2023/03/10 15:55:51;;;;;;;0.50;0.50;;;;;;;;;;4996477;28;20308;-89
2023/03/10 15:58:22;;;;;;;0.30;0.30;;;;;;;;;;5001091;28;20253;-87
2023/03/10 16:00:55;;;;;;;0.30;0.30;;;;;;;;;;4998384;28;20248;-88
2023/03/10 16:03:23;;;;;;;0.50;0.50;;;;;;;;;;4999862;28;20675;-89
2023/03/10 16:05:51;;;;;;;0.50;0.50;;;;;;;;;;4998648;28;20253;-90
2023/03/10 16:08:36;;;;;;;0.20;0.20;;;;;;;;;;4996880;28;20292;-87
2023/03/10 16:11:10;;;;;;;0.40;0.40;;;;;;;;;;4981582;28;20470;-88
2023/03/10 16:16:25;;;;;;;0.33;0.33;;;;;;;;;;4977120;28;20241;-89
2023/03/10 16:18:53;;;;;;;0.40;0.40;;;;;;;;;;4973998;28;20309;-89
2023/03/10 16:21:23;;;;;;;0.20;0.20;;;;;;;;;;4975984;28;20223;-88
2023/03/10 16:23:52;;;;;;;0.20;0.20;;;;;;;;;;4957356;28;20273;-90
2023/03/10 16:26:26;;;;;;;0.53;0.53;;;;;;;;;;4953638;28;20606;-87
2023/03/10 16:28:54;;;;;;;0.30;0.30;;;;;;;;;;4955892;28;20222;-88
2023/03/10 16:31:33;;;;;;;0.33;0.33;;;;;;;;;;4955031;28;20618;-89
2023/03/10 16:34:23;;;;;;;0.47;0.47;;;;;;;;;;4954771;28;20234;-90
2023/03/10 16:36:53;;;;;;;0.10;0.10;;;;;;;;;;4954914;28;20311;-89
2023/03/10 16:39:23;;;;;;;0.20;0.20;;;;;;;;;;4955169;29;20294;-89
2023/03/10 16:41:52;;;;;;;0.10;0.10;;;;;;;;;;4954207;28;20230;-88
2023/03/10 16:44:23;;;;;;;0.20;0.20;;;;;;;;;;4954810;28;20231;-89
2023/03/10 16:46:51;;;;;;;0.97;0.87;;;;;;;;;;4954763;28;20295;-89
2023/03/10 16:49:19;;;;;;;0.53;0.53;;;;;;;;;;4956595;28;20239;-89
2023/03/10 16:51:51;;;;;;;0.63;0.60;;;;;;;;;;4955165;28;20246;-89
2023/03/10 16:54:20;;;;;;;1.03;0.60;;;;;;;;;;4958487;29;20326;-88
2023/03/10 16:56:50;;;;;;;0.47;0.47;;;;;;;;;;4959236;29;20203;-87
2023/03/10 16:59:31;;;;;;;1.63;0.90;;;;;;;;;;4964917;29;20213;-87
2023/03/10 17:02:00;;;;;;;0.03;0.03;;;;;;;;;;4968077;28;20274;-87
2023/03/10 17:04:29;;;;;;;0.20;0.20;;;;;;;;;;4972872;29;20195;-88
2023/03/10 17:06:57;;;;;;;0.30;0.30;;;;;;;;;;4972906;29;20195;-88
2023/03/10 17:09:28;;;;;;;0.37;0.37;;;;;;;;;;4972716;29;20231;-89
2023/03/10 17:11:56;;;;;;;1.40;0.40;;;;;;;;;;4967159;28;20263;-89
2023/03/10 17:14:30;;;;;;;0.80;0.80;;;;;;;;;;4962875;28;20226;-88
2023/03/10 17:17:09;;;;;;;0.30;0.30;;;;;;;;;;4963400;29;20197;-90
2023/03/10 17:20:01;;;;;;;0.87;0.87;;;;;;;;;;4975026;29;20229;-88
2023/03/10 17:22:29;;;;;;;0.10;0.10;;;;;;;;;;4969340;29;20266;-86
2023/03/10 17:24:59;;;;;;;0.13;0.13;;;;;;;;;;4959427;29;20217;-89
2023/03/10 17:27:38;;;;;;;0.30;0.30;;;;;;;;;;4958470;28;20211;-89
2023/03/10 17:30:18;;;;;;;0.47;0.47;;;;;;;;;;4960884;28;20259;-90
2023/03/10 17:32:49;;;;;;;1.00;1.00;;;;;;;;;;4960537;28;20238;-90
2023/03/10 17:35:28;;;;;;;1.40;1.30;;;;;;;;;;4960325;28;20213;-89
2023/03/10 17:38:10;;;;;;;0.60;0.60;;;;;;;;;;4960316;28;20193;-89
2023/03/10 17:40:41;;;;;;;0.50;0.50;;;;;;;;;;4962130;28;20199;-89
2023/03/10 17:43:22;;;;;;;1.03;0.70;;;;;;;;;;4962490;28;20228;-88
2023/03/10 17:46:12;;;;;;;0.60;0.60;;;;;;;;;;4961145;28;20205;-90
2023/03/10 17:48:53;;;;;;;0.57;0.57;;;;;;;;;;4963540;28;20194;-90
2023/03/10 17:51:26;;;;;;;0.47;0.47;;;;;;;;;;4965098;28;20204;-88
2023/03/10 17:54:00;;;;;;;1.60;1.07;;;;;;;;;;4965819;29;20234;-89
2023/03/10 17:56:34;;;;;;;0.73;0.73;;;;;;;;;;4963918;28;20212;-88
2023/03/10 17:59:07;;;;;;;2.47;1.03;;;;;;;;;;4964559;29;20214;-89
2023/03/10 18:01:46;;;;;;;6.00;2.07;;;;;;;;;;4967995;28;20288;-88
2023/03/10 18:04:45;;;;;;;;;;;;;;;;;;;;;
2023/03/10 18:07:18;;;;;;;0.97;0.97;;;;;;;;;;4964740;28;20328;-88
2023/03/10 18:09:57;;;;;;;0.40;0.40;;;;;;;;;;4965891;28;20222;-88
2023/03/10 18:12:41;;;;;;;0.10;0.10;;;;;;;;;;4964049;28;20262;-89
2023/03/10 18:18:01;;;;;;;0.10;0.10;;;;;;;;;;4962063;28;20203;-88
2023/03/10 18:20:39;;;;;;;0.23;0.20;;;;;;;;;;4962366;28;20709;-90
2023/03/10 18:26:08;;;;;;;0.23;0.23;;;;;;;;;;4953493;29;20198;-88
2023/03/10 18:28:37;;;;;;;0.40;0.40;;;;;;;;;;4961637;29;20290;-90
2023/03/10 18:31:12;;;;;;;0.97;0.40;;;;;;;;;;4961687;28;20658;-89
2023/03/10 18:33:53;;;;;;;0.33;0.33;;;;;;;;;;4960547;28;20226;-89
2023/03/10 18:39:09;;;;;;;0.40;0.40;;;;;;;;;;4964792;28;20246;-89
2023/03/10 18:41:41;;;;;;;0.97;0.97;;;;;;;;;;4961867;28;20198;-89
2023/03/10 18:44:20;;;;;;;2.43;2.30;;;;;;;;;;4944076;29;20289;-91
2023/03/10 18:49:52;;;;;;;3.20;2.27;;;;;;;;;;4954895;28;20213;-89
2023/03/10 18:52:26;;;;;;;0.83;0.83;;;;;;;;;;4960574;28;20234;-91
2023/03/10 18:55:00;;;;;;;2.57;1.37;;;;;;;;;;4960430;28;20287;-88
2023/03/10 18:57:35;;;;;;;1.00;0.77;;;;;;;;;;4960552;28;20213;-89
2023/03/10 19:00:06;;;;;;;1.13;1.13;;;;;;;;;;4959982;29;20190;-87
2023/03/10 19:02:34;;;;;;;1.93;1.60;;;;;;;;;;4959913;28;20209;-89
2023/03/10 19:05:04;;;;;;;1.43;1.03;;;;;;;;;;4960166;29;20219;-90
2023/03/10 19:07:35;;;;;;;0.90;0.90;;;;;;;;;;4961350;29;20239;-90
2023/03/10 19:10:06;;;;;;;1.23;1.13;;;;;;;;;;4959977;28;20256;-90
2023/03/10 19:12:49;;;;;;;0.97;0.83;;;;;;;;;;4958433;28;20237;-91
2023/03/10 19:15:22;;;;;;;1.73;1.73;;;;;;;;;;4962965;29;20459;-87
2023/03/10 19:17:53;;;;;;;2.63;2.47;;;;;;;;;;4966615;29;20193;-89
2023/03/10 19:20:22;;;;;;;4.23;1.43;;;;;;;;;;4962380;28;20727;-89
2023/03/10 19:22:54;;;;;;;1.97;1.70;;;;;;;;;;4964938;28;20208;-90
2023/03/10 19:25:24;;;;;;;2.80;1.63;;;;;;;;;;4963178;29;20198;-88
2023/03/10 19:30:41;;;;;;;3.40;2.00;;;;;;;;;;4957865;28;20435;-90
2023/03/10 19:33:09;;;;;;;1.97;1.97;;;;;;;;;;4965667;28;20235;-88
2023/03/10 19:35:39;;;;;;;2.53;2.33;;;;;;;;;;4966058;28;20531;-90
2023/03/10 19:38:15;;;;;;;0.90;0.90;;;;;;;;;;4977898;28;20207;-90
2023/03/10 19:40:50;;;;;;;5.47;2.23;;;;;;;;;;4979638;28;20199;-89
2023/03/10 19:43:31;;;;;;;2.50;2.23;;;;;;;;;;4961060;28;20206;-91
2023/03/10 19:46:42;;;;;;;4.70;3.13;;;;;;;;;;4980806;28;20215;-89
2023/03/10 19:49:19;;;;;;;3.38;2.33;;;;;;;;;;4976033;28;20459;-87
2023/03/10 19:51:53;;;;;;;0.67;0.67;;;;;;;;;;4987151;28;20216;-87
2023/03/10 19:54:22;;;;;;;1.60;1.43;;;;;;;;;;4985238;28;20213;-87
2023/03/10 19:56:50;;;;;;;8.83;3.13;;;;;;;;;;4995338;28;20239;-88
2023/03/10 19:59:27;;;;;;;3.83;2.30;;;;;;;;;;4972048;28;20211;-86
2023/03/10 20:02:05;;;;;;;1.70;1.67;;;;;;;;;;4966713;28;20279;-91
2023/03/10 20:04:38;;;;;;;4.43;2.33;;;;;;;;;;4987671;28;20582;-90
2023/03/10 20:07:13;;;;;;;1.97;1.87;;;;;;;;;;4991000;28;20208;-91
2023/03/10 20:09:50;;;;;;;1.57;0.80;;;;;;;;;;4981700;28;20338;-86
2023/03/10 20:15:14;;;;;;;1.27;1.23;;;;;;;;;;4996359;28;20592;-88
2023/03/10 20:17:42;;;;;;;0.70;0.70;;;;;;;;;;4993703;28;20293;-88
2023/03/10 20:20:19;;;;;;;0.67;0.67;;;;;;;;;;4987071;28;20225;-89
2023/03/10 20:22:56;;;;;;;1.10;1.10;;;;;;;;;;4984599;28;20204;-87
2023/03/10 20:25:47;;;;;;;2.38;2.28;;;;;;;;;;4970379;28;20970;-89
2023/03/10 20:28:20;;;;;;;1.10;1.10;;;;;;;;;;4981531;28;20241;-89
2023/03/10 20:31:03;;;;;;;0.77;0.77;;;;;;;;;;4966083;28;20198;-89
2023/03/10 20:33:38;;;;;;;1.60;1.40;;;;;;;;;;4964348;28;20221;-90
2023/03/10 20:36:07;;;;;;;1.87;0.97;;;;;;;;;;4966914;28;20190;-88
2023/03/10 20:38:36;;;;;;;1.80;1.27;;;;;;;;;;4969847;28;20214;-90
2023/03/10 20:41:17;;;;;;;1.23;1.20;;;;;;;;;;4966241;28;20201;-89
2023/03/10 20:44:02;;;;;;;0.73;0.73;;;;;;;;;;4963188;28;20206;-90
2023/03/10 20:46:46;;;;;;;1.20;1.10;;;;;;;;;;4964603;28;20206;-88
2023/03/10 20:49:27;;;;;;;0.83;0.83;;;;;;;;;;4965115;28;20234;-88
2023/03/10 20:52:12;;;;;;;0.97;0.97;;;;;;;;;;4977670;28;20313;-90
2023/03/10 21:00:18;;;;;;;2.00;0.80;;;;;;;;;;4971944;28;20278;-89
2023/03/10 21:03:20;;;;;;;2.20;1.33;;;;;;;;;;4970016;28;20217;-89
2023/03/10 21:05:56;;;;;;;20.43;1.77;;;;;;;;;;4969320;28;20216;-90
2023/03/10 21:08:30;;;;;;;1.40;0.80;;;;;;;;;;4964411;28;20461;-89
2023/03/10 21:11:13;;;;;;;1.03;0.93;;;;;;;;;;4960330;28;20222;-90
2023/03/10 21:13:42;;;;;;;0.90;0.90;;;;;;;;;;4967756;28;20224;-88
2023/03/10 21:16:26;;;;;;;;;;;;;;;;;;;;;
2023/03/10 21:19:02;;;;;;;1.80;0.70;;;;;;;;;;4988330;28;20221;-89
2023/03/10 21:21:44;;;;;;;1.52;1.52;;;;;;;;;;4960848;28;20476;-89
2023/03/10 21:24:20;;;;;;;0.93;0.83;;;;;;;;;;4964252;29;20196;-89
2023/03/10 21:27:01;;;;;;;1.20;0.60;;;;;;;;;;4967135;28;20223;-90
2023/03/10 21:29:32;;;;;;;1.33;0.83;;;;;;;;;;4965846;29;20202;-89
2023/03/10 21:32:04;;;;;;;1.20;1.07;;;;;;;;;;4966481;29;20218;-90
2023/03/10 21:34:41;;;;;;;1.93;1.43;;;;;;;;;;4962093;29;20730;-90
2023/03/10 21:37:16;;;;;;;0.90;0.87;;;;;;;;;;4963785;28;20234;-89
2023/03/10 21:39:44;;;;;;;1.57;1.43;;;;;;;;;;4966857;28;20297;-90
2023/03/10 21:42:13;;;;;;;0.90;0.90;;;;;;;;;;4964349;29;20209;-87
2023/03/10 21:44:43;;;;;;;2.50;1.77;;;;;;;;;;4959302;28;20210;-89
2023/03/10 21:47:14;;;;;;;1.20;0.83;;;;;;;;;;4959175;29;20206;-88
2023/03/10 21:49:43;;;;;;;0.83;0.83;;;;;;;;;;4968972;29;20667;-89
2023/03/10 21:52:11;;;;;;;0.50;0.50;;;;;;;;;;4971923;29;20289;-89
2023/03/10 21:54:50;;;;;;;0.73;0.73;;;;;;;;;;4968012;28;20317;-88
2023/03/10 21:57:32;;;;;;;2.03;1.13;;;;;;;;;;4985643;28;20268;-88
2023/03/10 22:00:15;;;;;;;0.77;0.77;;;;;;;;;;4975526;28;20226;-90
2023/03/10 22:02:48;;;;;;;1.57;1.47;;;;;;;;;;4970714;28;20205;-89
2023/03/10 22:05:28;;;;;;;1.67;1.53;;;;;;;;;;4959972;28;20217;-89
2023/03/10 22:08:16;;;;;;;1.20;1.20;;;;;;;;;;4965136;28;20207;-88
2023/03/10 22:10:58;;;;;;;1.33;1.00;;;;;;;;;;4978092;28;20222;-89
2023/03/10 22:13:44;;;;;;;1.37;1.37;;;;;;;;;;4979912;28;20233;-89
2023/03/10 22:16:17;;;;;;;0.80;0.80;;;;;;;;;;4979843;28;20643;-90
2023/03/10 22:18:51;;;;;;;1.27;0.53;;;;;;;;;;4978806;28;20200;-90
2023/03/10 22:21:39;;;;;;;1.47;1.37;;;;;;;;;;4999828;28;20695;-89
2023/03/10 22:24:10;;;;;;;1.03;1.03;;;;;;;;;;4998409;28;20746;-90
2023/03/10 22:26:39;;;;;;;0.47;0.47;;;;;;;;;;4999067;28;20174;-89
2023/03/10 22:29:16;;;;;;;3.80;1.37;;;;;;;;;;4999912;28;20193;-90
2023/03/10 22:31:55;;;;;;;1.23;1.23;;;;;;;;;;4998411;28;20193;-89
2023/03/10 22:34:34;;;;;;;0.60;0.60;;;;;;;;;;4997474;28;20265;-90
2023/03/10 22:37:27;;;;;;;0.73;0.73;;;;;;;;;;4998807;28;20252;-89
2023/03/10 22:40:11;;;;;;;2.20;1.57;;;;;;;;;;5001094;28;20216;-90
2023/03/10 22:42:46;;;;;;;0.73;0.73;;;;;;;;;;5000398;28;20185;-89
2023/03/10 22:45:21;;;;;;;2.42;1.48;;;;;;;;;;4997863;28;20785;-89
2023/03/10 22:47:50;;;;;;;1.13;1.13;;;;;;;;;;5005137;28;20211;-88
2023/03/10 22:50:23;;;;;;;2.90;0.90;;;;;;;;;;5009228;28;20197;-90
2023/03/10 22:52:51;;;;;;;0.60;0.60;;;;;;;;;;5009602;28;20205;-89